sensor_id;sensor_type;location;lat;lon;timestamp;P1;durP1;ratioP1;P2;durP2;ratioP2
77828;SDS011;67019;51.034;3.728;2023-04-30T00:00:36;29.75;;;14.90;;
77828;SDS011;67019;51.034;3.728;2023-04-30T00:03:03;35.10;;;16.37;;
77828;SDS011;67019;51.034;3.728;2023-04-30T00:05:31;24.50;;;15.93;;
77828;SDS011;67019;51.034;3.728;2023-04-30T00:07:58;26.87;;;14.10;;
77828;SDS011;67019;51.034;3.728;2023-04-30T00:10:26;27.22;;;16.10;;
77828;SDS011;67019;51.034;3.728;2023-04-30T00:12:53;28.40;;;16.30;;
77828;SDS011;67019;51.034;3.728;2023-04-30T00:15:21;29.05;;;16.73;;
77828;SDS011;67019;51.034;3.728;2023-04-30T00:17:49;29.10;;;15.50;;
77828;SDS011;67019;51.034;3.728;2023-04-30T00:20:17;30.45;;;16.52;;
77828;SDS011;67019;51.034;3.728;2023-04-30T00:22:45;27.95;;;17.10;;
77828;SDS011;67019;51.034;3.728;2023-04-30T00:25:13;25.23;;;15.83;;
77828;SDS011;67019;51.034;3.728;2023-04-30T00:27:41;28.38;;;16.20;;
77828;SDS011;67019;51.034;3.728;2023-04-30T00:30:08;34.63;;;14.80;;
77828;SDS011;67019;51.034;3.728;2023-04-30T00:32:36;27.65;;;15.00;;
77828;SDS011;67019;51.034;3.728;2023-04-30T00:35:04;24.80;;;15.72;;
77828;SDS011;67019;51.034;3.728;2023-04-30T00:37:32;32.95;;;16.30;;
77828;SDS011;67019;51.034;3.728;2023-04-30T00:40:00;32.67;;;15.60;;
77828;SDS011;67019;51.034;3.728;2023-04-30T00:42:28;30.23;;;16.30;;
77828;SDS011;67019;51.034;3.728;2023-04-30T00:44:55;27.90;;;16.02;;
77828;SDS011;67019;51.034;3.728;2023-04-30T00:47:23;30.05;;;17.95;;
77828;SDS011;67019;51.034;3.728;2023-04-30T00:49:50;33.15;;;18.50;;
77828;SDS011;67019;51.034;3.728;2023-04-30T00:52:18;29.45;;;17.50;;
77828;SDS011;67019;51.034;3.728;2023-04-30T00:54:46;33.83;;;16.95;;
77828;SDS011;67019;51.034;3.728;2023-04-30T00:57:15;38.20;;;17.65;;
77828;SDS011;67019;51.034;3.728;2023-04-30T00:59:43;24.15;;;16.12;;
77828;SDS011;67019;51.034;3.728;2023-04-30T01:02:11;29.20;;;16.40;;
77828;SDS011;67019;51.034;3.728;2023-04-30T01:04:39;29.90;;;15.65;;
77828;SDS011;67019;51.034;3.728;2023-04-30T01:07:06;29.80;;;17.00;;
77828;SDS011;67019;51.034;3.728;2023-04-30T01:09:34;26.73;;;16.00;;
77828;SDS011;67019;51.034;3.728;2023-04-30T01:12:07;31.15;;;18.10;;
77828;SDS011;67019;51.034;3.728;2023-04-30T01:14:53;32.83;;;17.00;;
77828;SDS011;67019;51.034;3.728;2023-04-30T01:18:01;27.17;;;15.25;;
77828;SDS011;67019;51.034;3.728;2023-04-30T01:20:25;27.60;;;15.28;;
77828;SDS011;67019;51.034;3.728;2023-04-30T01:23:12;27.27;;;14.93;;
77828;SDS011;67019;51.034;3.728;2023-04-30T01:25:50;30.52;;;14.43;;
77828;SDS011;67019;51.034;3.728;2023-04-30T01:28:29;28.55;;;16.05;;
77828;SDS011;67019;51.034;3.728;2023-04-30T01:31:00;26.90;;;16.00;;
77828;SDS011;67019;51.034;3.728;2023-04-30T01:33:27;26.80;;;15.28;;
77828;SDS011;67019;51.034;3.728;2023-04-30T01:36:00;27.52;;;15.68;;
77828;SDS011;67019;51.034;3.728;2023-04-30T01:41:19;30.70;;;14.70;;
77828;SDS011;67019;51.034;3.728;2023-04-30T01:46:52;26.90;;;14.05;;
77828;SDS011;67019;51.034;3.728;2023-04-30T01:54:44;23.27;;;14.03;;
77828;SDS011;67019;51.034;3.728;2023-04-30T01:59:39;19.32;;;13.08;;
77828;SDS011;67019;51.034;3.728;2023-04-30T02:02:08;27.55;;;13.60;;
77828;SDS011;67019;51.034;3.728;2023-04-30T02:04:35;25.95;;;14.07;;
77828;SDS011;67019;51.034;3.728;2023-04-30T02:07:03;24.60;;;13.90;;
77828;SDS011;67019;51.034;3.728;2023-04-30T02:09:31;26.75;;;14.20;;
77828;SDS011;67019;51.034;3.728;2023-04-30T02:11:59;22.90;;;13.18;;
77828;SDS011;67019;51.034;3.728;2023-04-30T02:14:29;24.67;;;13.72;;
77828;SDS011;67019;51.034;3.728;2023-04-30T02:16:57;27.42;;;14.07;;
77828;SDS011;67019;51.034;3.728;2023-04-30T02:19:24;24.02;;;14.28;;
77828;SDS011;67019;51.034;3.728;2023-04-30T02:21:52;18.62;;;13.13;;
77828;SDS011;67019;51.034;3.728;2023-04-30T02:24:19;21.95;;;13.43;;
77828;SDS011;67019;51.034;3.728;2023-04-30T02:26:47;23.67;;;13.50;;
77828;SDS011;67019;51.034;3.728;2023-04-30T02:29:15;23.57;;;12.85;;
77828;SDS011;67019;51.034;3.728;2023-04-30T02:31:42;23.05;;;15.18;;
77828;SDS011;67019;51.034;3.728;2023-04-30T02:34:10;21.40;;;13.15;;
77828;SDS011;67019;51.034;3.728;2023-04-30T02:36:37;29.37;;;14.75;;
77828;SDS011;67019;51.034;3.728;2023-04-30T02:39:05;23.27;;;12.55;;
77828;SDS011;67019;51.034;3.728;2023-04-30T02:41:33;25.65;;;12.85;;
77828;SDS011;67019;51.034;3.728;2023-04-30T02:44:01;20.70;;;13.75;;
77828;SDS011;67019;51.034;3.728;2023-04-30T02:46:29;25.68;;;14.78;;
77828;SDS011;67019;51.034;3.728;2023-04-30T02:48:56;22.50;;;12.95;;
77828;SDS011;67019;51.034;3.728;2023-04-30T02:51:24;26.77;;;13.48;;
77828;SDS011;67019;51.034;3.728;2023-04-30T02:53:51;19.80;;;12.85;;
77828;SDS011;67019;51.034;3.728;2023-04-30T02:56:19;24.40;;;13.32;;
77828;SDS011;67019;51.034;3.728;2023-04-30T02:58:46;20.25;;;12.55;;
77828;SDS011;67019;51.034;3.728;2023-04-30T03:01:14;21.97;;;12.55;;
77828;SDS011;67019;51.034;3.728;2023-04-30T03:03:41;22.37;;;12.65;;
77828;SDS011;67019;51.034;3.728;2023-04-30T03:06:09;35.05;;;13.35;;
77828;SDS011;67019;51.034;3.728;2023-04-30T03:08:37;21.50;;;12.73;;
77828;SDS011;67019;51.034;3.728;2023-04-30T03:11:04;22.37;;;12.23;;
77828;SDS011;67019;51.034;3.728;2023-04-30T03:13:32;24.02;;;12.33;;
77828;SDS011;67019;51.034;3.728;2023-04-30T03:16:00;20.55;;;11.78;;
77828;SDS011;67019;51.034;3.728;2023-04-30T03:18:31;22.00;;;12.90;;
77828;SDS011;67019;51.034;3.728;2023-04-30T03:20:59;23.47;;;12.07;;
77828;SDS011;67019;51.034;3.728;2023-04-30T03:23:27;20.40;;;11.57;;
77828;SDS011;67019;51.034;3.728;2023-04-30T03:25:54;19.73;;;12.13;;
77828;SDS011;67019;51.034;3.728;2023-04-30T03:28:22;22.75;;;12.20;;
77828;SDS011;67019;51.034;3.728;2023-04-30T03:30:49;23.42;;;12.25;;
77828;SDS011;67019;51.034;3.728;2023-04-30T03:33:17;34.55;;;13.58;;
77828;SDS011;67019;51.034;3.728;2023-04-30T03:35:44;19.98;;;11.45;;
77828;SDS011;67019;51.034;3.728;2023-04-30T03:38:12;23.52;;;13.00;;
77828;SDS011;67019;51.034;3.728;2023-04-30T03:40:40;21.93;;;14.25;;
77828;SDS011;67019;51.034;3.728;2023-04-30T03:43:07;23.52;;;14.00;;
77828;SDS011;67019;51.034;3.728;2023-04-30T03:45:35;27.95;;;12.37;;
77828;SDS011;67019;51.034;3.728;2023-04-30T03:48:02;28.23;;;13.45;;
77828;SDS011;67019;51.034;3.728;2023-04-30T03:50:30;29.77;;;15.38;;
77828;SDS011;67019;51.034;3.728;2023-04-30T03:52:58;20.32;;;12.55;;
77828;SDS011;67019;51.034;3.728;2023-04-30T03:55:25;23.42;;;13.45;;
77828;SDS011;67019;51.034;3.728;2023-04-30T03:57:53;23.55;;;13.10;;
77828;SDS011;67019;51.034;3.728;2023-04-30T04:00:21;21.62;;;13.18;;
77828;SDS011;67019;51.034;3.728;2023-04-30T04:02:48;27.02;;;15.03;;
77828;SDS011;67019;51.034;3.728;2023-04-30T04:05:16;23.98;;;12.45;;
77828;SDS011;67019;51.034;3.728;2023-04-30T04:07:44;20.40;;;12.63;;
77828;SDS011;67019;51.034;3.728;2023-04-30T04:10:11;20.50;;;13.32;;
77828;SDS011;67019;51.034;3.728;2023-04-30T04:12:39;26.17;;;13.80;;
77828;SDS011;67019;51.034;3.728;2023-04-30T04:15:07;24.57;;;12.73;;
77828;SDS011;67019;51.034;3.728;2023-04-30T04:17:35;27.80;;;14.45;;
77828;SDS011;67019;51.034;3.728;2023-04-30T04:20:02;25.37;;;15.45;;
77828;SDS011;67019;51.034;3.728;2023-04-30T04:22:31;25.55;;;13.88;;
77828;SDS011;67019;51.034;3.728;2023-04-30T04:24:58;25.77;;;14.15;;
77828;SDS011;67019;51.034;3.728;2023-04-30T04:27:26;23.75;;;13.60;;
77828;SDS011;67019;51.034;3.728;2023-04-30T04:29:53;25.52;;;14.25;;
77828;SDS011;67019;51.034;3.728;2023-04-30T04:32:21;23.40;;;13.22;;
77828;SDS011;67019;51.034;3.728;2023-04-30T04:34:49;22.17;;;13.30;;
77828;SDS011;67019;51.034;3.728;2023-04-30T04:37:18;22.13;;;13.98;;
77828;SDS011;67019;51.034;3.728;2023-04-30T04:39:46;23.12;;;13.90;;
77828;SDS011;67019;51.034;3.728;2023-04-30T04:42:14;26.55;;;14.13;;
77828;SDS011;67019;51.034;3.728;2023-04-30T04:44:42;27.60;;;14.75;;
77828;SDS011;67019;51.034;3.728;2023-04-30T04:47:10;21.37;;;13.88;;
77828;SDS011;67019;51.034;3.728;2023-04-30T04:49:37;27.50;;;15.30;;
77828;SDS011;67019;51.034;3.728;2023-04-30T04:52:05;24.77;;;14.63;;
77828;SDS011;67019;51.034;3.728;2023-04-30T04:54:33;24.77;;;15.63;;
77828;SDS011;67019;51.034;3.728;2023-04-30T04:57:00;33.28;;;15.35;;
77828;SDS011;67019;51.034;3.728;2023-04-30T04:59:28;22.58;;;15.08;;
77828;SDS011;67019;51.034;3.728;2023-04-30T05:01:55;24.55;;;13.95;;
77828;SDS011;67019;51.034;3.728;2023-04-30T05:04:23;23.07;;;14.13;;
77828;SDS011;67019;51.034;3.728;2023-04-30T05:06:51;22.90;;;14.10;;
77828;SDS011;67019;51.034;3.728;2023-04-30T05:09:19;25.23;;;14.35;;
77828;SDS011;67019;51.034;3.728;2023-04-30T05:11:46;24.02;;;14.15;;
77828;SDS011;67019;51.034;3.728;2023-04-30T05:14:14;29.50;;;14.45;;
77828;SDS011;67019;51.034;3.728;2023-04-30T05:16:42;22.90;;;12.93;;
77828;SDS011;67019;51.034;3.728;2023-04-30T05:19:09;24.02;;;14.68;;
77828;SDS011;67019;51.034;3.728;2023-04-30T05:21:37;25.05;;;13.03;;
77828;SDS011;67019;51.034;3.728;2023-04-30T05:24:05;24.35;;;14.13;;
77828;SDS011;67019;51.034;3.728;2023-04-30T05:26:32;26.23;;;14.63;;
77828;SDS011;67019;51.034;3.728;2023-04-30T05:29:00;21.25;;;13.40;;
77828;SDS011;67019;51.034;3.728;2023-04-30T05:31:28;29.57;;;14.50;;
77828;SDS011;67019;51.034;3.728;2023-04-30T05:33:57;22.45;;;14.18;;
77828;SDS011;67019;51.034;3.728;2023-04-30T05:36:24;22.20;;;12.03;;
77828;SDS011;67019;51.034;3.728;2023-04-30T05:38:52;26.00;;;14.93;;
77828;SDS011;67019;51.034;3.728;2023-04-30T05:41:19;22.60;;;13.28;;
77828;SDS011;67019;51.034;3.728;2023-04-30T05:43:47;24.27;;;14.28;;
77828;SDS011;67019;51.034;3.728;2023-04-30T05:46:15;21.00;;;12.95;;
77828;SDS011;67019;51.034;3.728;2023-04-30T05:48:42;25.90;;;14.87;;
77828;SDS011;67019;51.034;3.728;2023-04-30T05:51:10;23.45;;;14.83;;
77828;SDS011;67019;51.034;3.728;2023-04-30T05:53:37;29.37;;;16.87;;
77828;SDS011;67019;51.034;3.728;2023-04-30T05:56:05;29.98;;;17.10;;
77828;SDS011;67019;51.034;3.728;2023-04-30T05:58:33;26.50;;;16.02;;
77828;SDS011;67019;51.034;3.728;2023-04-30T06:01:01;33.53;;;15.65;;
77828;SDS011;67019;51.034;3.728;2023-04-30T06:03:28;23.98;;;15.93;;
77828;SDS011;67019;51.034;3.728;2023-04-30T06:05:56;24.30;;;15.15;;
77828;SDS011;67019;51.034;3.728;2023-04-30T06:08:24;24.37;;;14.85;;
77828;SDS011;67019;51.034;3.728;2023-04-30T06:10:52;30.10;;;16.70;;
77828;SDS011;67019;51.034;3.728;2023-04-30T06:13:19;32.40;;;16.62;;
77828;SDS011;67019;51.034;3.728;2023-04-30T06:15:47;26.60;;;14.98;;
77828;SDS011;67019;51.034;3.728;2023-04-30T06:18:15;30.48;;;17.12;;
77828;SDS011;67019;51.034;3.728;2023-04-30T06:20:42;24.47;;;16.62;;
77828;SDS011;67019;51.034;3.728;2023-04-30T06:23:10;23.90;;;14.13;;
77828;SDS011;67019;51.034;3.728;2023-04-30T06:25:37;24.63;;;15.98;;
77828;SDS011;67019;51.034;3.728;2023-04-30T06:28:06;26.27;;;15.30;;
77828;SDS011;67019;51.034;3.728;2023-04-30T06:30:35;25.00;;;17.35;;
77828;SDS011;67019;51.034;3.728;2023-04-30T06:33:03;27.70;;;17.23;;
77828;SDS011;67019;51.034;3.728;2023-04-30T06:35:30;27.40;;;17.77;;
77828;SDS011;67019;51.034;3.728;2023-04-30T06:37:58;32.50;;;17.70;;
77828;SDS011;67019;51.034;3.728;2023-04-30T06:40:27;26.07;;;17.48;;
77828;SDS011;67019;51.034;3.728;2023-04-30T06:42:55;27.70;;;16.52;;
77828;SDS011;67019;51.034;3.728;2023-04-30T06:45:22;29.87;;;17.30;;
77828;SDS011;67019;51.034;3.728;2023-04-30T06:47:50;30.95;;;17.27;;
77828;SDS011;67019;51.034;3.728;2023-04-30T06:50:18;30.65;;;16.97;;
77828;SDS011;67019;51.034;3.728;2023-04-30T06:52:46;30.57;;;19.65;;
77828;SDS011;67019;51.034;3.728;2023-04-30T06:55:14;29.80;;;17.10;;
77828;SDS011;67019;51.034;3.728;2023-04-30T06:57:41;28.87;;;16.70;;
77828;SDS011;67019;51.034;3.728;2023-04-30T07:00:09;30.97;;;18.62;;
77828;SDS011;67019;51.034;3.728;2023-04-30T07:02:39;31.40;;;16.37;;
77828;SDS011;67019;51.034;3.728;2023-04-30T07:05:07;26.00;;;17.02;;
77828;SDS011;67019;51.034;3.728;2023-04-30T07:07:36;28.80;;;18.02;;
77828;SDS011;67019;51.034;3.728;2023-04-30T07:10:04;27.10;;;18.07;;
77828;SDS011;67019;51.034;3.728;2023-04-30T07:12:32;29.07;;;19.02;;
77828;SDS011;67019;51.034;3.728;2023-04-30T07:15:00;29.20;;;17.87;;
77828;SDS011;67019;51.034;3.728;2023-04-30T07:17:28;28.07;;;16.40;;
77828;SDS011;67019;51.034;3.728;2023-04-30T07:19:55;26.90;;;18.98;;
77828;SDS011;67019;51.034;3.728;2023-04-30T07:22:23;27.45;;;16.77;;
77828;SDS011;67019;51.034;3.728;2023-04-30T07:24:50;26.10;;;16.70;;
77828;SDS011;67019;51.034;3.728;2023-04-30T07:27:18;29.92;;;17.45;;
77828;SDS011;67019;51.034;3.728;2023-04-30T07:29:45;27.55;;;16.73;;
77828;SDS011;67019;51.034;3.728;2023-04-30T07:32:13;28.32;;;17.37;;
77828;SDS011;67019;51.034;3.728;2023-04-30T07:34:41;26.70;;;16.77;;
77828;SDS011;67019;51.034;3.728;2023-04-30T07:37:08;29.27;;;16.40;;
77828;SDS011;67019;51.034;3.728;2023-04-30T07:39:36;27.75;;;17.35;;
77828;SDS011;67019;51.034;3.728;2023-04-30T07:42:04;30.75;;;17.73;;
77828;SDS011;67019;51.034;3.728;2023-04-30T07:44:34;30.08;;;18.67;;
77828;SDS011;67019;51.034;3.728;2023-04-30T07:47:01;26.65;;;16.77;;
77828;SDS011;67019;51.034;3.728;2023-04-30T07:49:28;28.12;;;16.02;;
77828;SDS011;67019;51.034;3.728;2023-04-30T07:51:56;27.37;;;17.35;;
77828;SDS011;67019;51.034;3.728;2023-04-30T07:54:26;29.73;;;18.17;;
77828;SDS011;67019;51.034;3.728;2023-04-30T07:56:53;25.27;;;17.30;;
77828;SDS011;67019;51.034;3.728;2023-04-30T07:59:23;27.85;;;16.82;;
77828;SDS011;67019;51.034;3.728;2023-04-30T08:01:52;31.42;;;17.27;;
77828;SDS011;67019;51.034;3.728;2023-04-30T08:04:19;24.50;;;17.40;;
77828;SDS011;67019;51.034;3.728;2023-04-30T08:06:48;26.95;;;17.57;;
77828;SDS011;67019;51.034;3.728;2023-04-30T08:09:16;29.07;;;18.02;;
77828;SDS011;67019;51.034;3.728;2023-04-30T08:11:44;34.35;;;17.67;;
77828;SDS011;67019;51.034;3.728;2023-04-30T08:14:11;27.15;;;16.52;;
77828;SDS011;67019;51.034;3.728;2023-04-30T08:16:39;22.75;;;15.75;;
77828;SDS011;67019;51.034;3.728;2023-04-30T08:19:06;25.52;;;15.43;;
77828;SDS011;67019;51.034;3.728;2023-04-30T08:21:34;23.62;;;15.88;;
77828;SDS011;67019;51.034;3.728;2023-04-30T08:24:02;26.02;;;15.25;;
77828;SDS011;67019;51.034;3.728;2023-04-30T08:26:31;29.80;;;17.25;;
77828;SDS011;67019;51.034;3.728;2023-04-30T08:28:58;26.90;;;15.63;;
77828;SDS011;67019;51.034;3.728;2023-04-30T08:31:26;25.20;;;16.20;;
77828;SDS011;67019;51.034;3.728;2023-04-30T08:33:53;28.77;;;16.90;;
77828;SDS011;67019;51.034;3.728;2023-04-30T08:36:21;24.02;;;16.17;;
77828;SDS011;67019;51.034;3.728;2023-04-30T08:38:51;27.80;;;15.65;;
77828;SDS011;67019;51.034;3.728;2023-04-30T08:41:18;28.67;;;16.32;;
77828;SDS011;67019;51.034;3.728;2023-04-30T08:43:48;25.57;;;14.80;;
77828;SDS011;67019;51.034;3.728;2023-04-30T08:46:19;20.72;;;15.03;;
77828;SDS011;67019;51.034;3.728;2023-04-30T08:48:48;23.77;;;14.75;;
77828;SDS011;67019;51.034;3.728;2023-04-30T08:51:15;20.48;;;14.90;;
77828;SDS011;67019;51.034;3.728;2023-04-30T08:53:43;25.45;;;14.83;;
77828;SDS011;67019;51.034;3.728;2023-04-30T08:56:12;26.35;;;15.58;;
77828;SDS011;67019;51.034;3.728;2023-04-30T08:58:40;27.02;;;14.90;;
77828;SDS011;67019;51.034;3.728;2023-04-30T09:01:08;23.75;;;14.83;;
77828;SDS011;67019;51.034;3.728;2023-04-30T09:03:36;25.92;;;15.78;;
77828;SDS011;67019;51.034;3.728;2023-04-30T09:06:04;27.58;;;14.75;;
77828;SDS011;67019;51.034;3.728;2023-04-30T09:08:41;22.17;;;14.40;;
77828;SDS011;67019;51.034;3.728;2023-04-30T09:11:22;25.30;;;14.38;;
77828;SDS011;67019;51.034;3.728;2023-04-30T09:13:55;23.70;;;15.43;;
77828;SDS011;67019;51.034;3.728;2023-04-30T09:16:24;33.95;;;14.15;;
77828;SDS011;67019;51.034;3.728;2023-04-30T09:18:56;19.90;;;14.87;;
77828;SDS011;67019;51.034;3.728;2023-04-30T09:21:34;23.32;;;14.38;;
77828;SDS011;67019;51.034;3.728;2023-04-30T09:24:03;24.20;;;14.65;;
77828;SDS011;67019;51.034;3.728;2023-04-30T09:26:32;22.15;;;16.17;;
77828;SDS011;67019;51.034;3.728;2023-04-30T09:29:01;22.90;;;15.32;;
77828;SDS011;67019;51.034;3.728;2023-04-30T09:31:33;24.10;;;14.75;;
77828;SDS011;67019;51.034;3.728;2023-04-30T09:34:03;21.83;;;16.70;;
77828;SDS011;67019;51.034;3.728;2023-04-30T09:36:31;30.50;;;14.60;;
77828;SDS011;67019;51.034;3.728;2023-04-30T09:39:07;22.48;;;15.28;;
77828;SDS011;67019;51.034;3.728;2023-04-30T09:41:32;21.42;;;14.58;;
77828;SDS011;67019;51.034;3.728;2023-04-30T09:44:00;23.75;;;16.07;;
77828;SDS011;67019;51.034;3.728;2023-04-30T09:46:32;17.65;;;12.70;;
77828;SDS011;67019;51.034;3.728;2023-04-30T09:49:03;24.02;;;12.53;;
77828;SDS011;67019;51.034;3.728;2023-04-30T09:51:32;16.80;;;12.03;;
77828;SDS011;67019;51.034;3.728;2023-04-30T09:54:01;19.57;;;12.58;;
77828;SDS011;67019;51.034;3.728;2023-04-30T09:56:31;19.85;;;11.80;;
77828;SDS011;67019;51.034;3.728;2023-04-30T09:59:01;26.10;;;10.82;;
77828;SDS011;67019;51.034;3.728;2023-04-30T10:01:31;22.37;;;12.15;;
77828;SDS011;67019;51.034;3.728;2023-04-30T10:04:01;18.52;;;11.83;;
77828;SDS011;67019;51.034;3.728;2023-04-30T10:06:30;18.62;;;11.30;;
77828;SDS011;67019;51.034;3.728;2023-04-30T10:09:00;18.42;;;13.13;;
77828;SDS011;67019;51.034;3.728;2023-04-30T10:14:13;22.13;;;13.38;;
77828;SDS011;67019;51.034;3.728;2023-04-30T10:16:52;17.23;;;12.30;;
77828;SDS011;67019;51.034;3.728;2023-04-30T10:19:23;19.70;;;13.05;;
77828;SDS011;67019;51.034;3.728;2023-04-30T10:21:51;21.30;;;13.70;;
77828;SDS011;67019;51.034;3.728;2023-04-30T10:24:19;14.80;;;9.73;;
77828;SDS011;67019;51.034;3.728;2023-04-30T10:26:47;14.63;;;10.05;;
77828;SDS011;67019;51.034;3.728;2023-04-30T10:29:16;16.45;;;10.45;;
77828;SDS011;67019;51.034;3.728;2023-04-30T10:31:45;12.68;;;8.75;;
77828;SDS011;67019;51.034;3.728;2023-04-30T10:37:04;14.30;;;9.73;;
77828;SDS011;67019;51.034;3.728;2023-04-30T10:39:37;14.45;;;7.62;;
77828;SDS011;67019;51.034;3.728;2023-04-30T10:42:05;10.60;;;8.05;;
77828;SDS011;67019;51.034;3.728;2023-04-30T10:44:37;17.40;;;8.20;;
77828;SDS011;67019;51.034;3.728;2023-04-30T10:47:06;13.90;;;7.72;;
77828;SDS011;67019;51.034;3.728;2023-04-30T10:49:33;14.65;;;8.60;;
77828;SDS011;67019;51.034;3.728;2023-04-30T10:52:02;11.43;;;7.85;;
77828;SDS011;67019;51.034;3.728;2023-04-30T10:54:31;10.00;;;7.08;;
77828;SDS011;67019;51.034;3.728;2023-04-30T10:57:13;9.53;;;7.42;;
77828;SDS011;67019;51.034;3.728;2023-04-30T11:02:41;9.95;;;7.47;;
77828;SDS011;67019;51.034;3.728;2023-04-30T11:05:12;8.03;;;5.60;;
77828;SDS011;67019;51.034;3.728;2023-04-30T11:07:47;7.97;;;5.67;;
77828;SDS011;67019;51.034;3.728;2023-04-30T11:10:20;8.35;;;6.65;;
77828;SDS011;67019;51.034;3.728;2023-04-30T11:12:52;12.75;;;7.37;;
77828;SDS011;67019;51.034;3.728;2023-04-30T11:15:23;9.60;;;6.42;;
77828;SDS011;67019;51.034;3.728;2023-04-30T11:17:57;9.40;;;5.65;;
77828;SDS011;67019;51.034;3.728;2023-04-30T11:20:25;14.63;;;7.05;;
77828;SDS011;67019;51.034;3.728;2023-04-30T11:23:19;8.28;;;4.72;;
77828;SDS011;67019;51.034;3.728;2023-04-30T11:25:47;11.43;;;7.03;;
77828;SDS011;67019;51.034;3.728;2023-04-30T11:28:19;9.25;;;5.40;;
77828;SDS011;67019;51.034;3.728;2023-04-30T11:30:58;8.85;;;6.37;;
77828;SDS011;67019;51.034;3.728;2023-04-30T11:33:24;8.58;;;5.85;;
77828;SDS011;67019;51.034;3.728;2023-04-30T11:35:59;11.70;;;6.00;;
77828;SDS011;67019;51.034;3.728;2023-04-30T11:38:27;13.62;;;5.78;;
77828;SDS011;67019;51.034;3.728;2023-04-30T11:40:56;9.40;;;5.97;;
77828;SDS011;67019;51.034;3.728;2023-04-30T11:43:29;7.65;;;5.37;;
77828;SDS011;67019;51.034;3.728;2023-04-30T11:46:01;9.45;;;7.15;;
77828;SDS011;67019;51.034;3.728;2023-04-30T11:48:31;9.60;;;6.03;;
77828;SDS011;67019;51.034;3.728;2023-04-30T11:53:34;8.65;;;6.35;;
77828;SDS011;67019;51.034;3.728;2023-04-30T11:56:02;8.83;;;5.83;;
77828;SDS011;67019;51.034;3.728;2023-04-30T11:58:34;12.13;;;6.80;;
77828;SDS011;67019;51.034;3.728;2023-04-30T12:00:59;7.90;;;6.13;;
77828;SDS011;67019;51.034;3.728;2023-04-30T12:03:27;9.63;;;5.20;;
77828;SDS011;67019;51.034;3.728;2023-04-30T12:05:55;8.13;;;5.35;;
77828;SDS011;67019;51.034;3.728;2023-04-30T12:08:22;8.48;;;5.65;;
77828;SDS011;67019;51.034;3.728;2023-04-30T12:10:51;8.30;;;6.00;;
77828;SDS011;67019;51.034;3.728;2023-04-30T12:13:18;13.50;;;5.40;;
77828;SDS011;67019;51.034;3.728;2023-04-30T12:15:55;7.83;;;5.47;;
77828;SDS011;67019;51.034;3.728;2023-04-30T12:18:25;6.85;;;5.15;;
77828;SDS011;67019;51.034;3.728;2023-04-30T12:20:52;6.47;;;4.62;;
77828;SDS011;67019;51.034;3.728;2023-04-30T12:23:20;7.12;;;4.00;;
77828;SDS011;67019;51.034;3.728;2023-04-30T12:25:48;12.25;;;4.80;;
77828;SDS011;67019;51.034;3.728;2023-04-30T12:28:15;7.12;;;4.20;;
77828;SDS011;67019;51.034;3.728;2023-04-30T12:30:43;7.03;;;4.95;;
77828;SDS011;67019;51.034;3.728;2023-04-30T12:33:11;7.78;;;5.55;;
77828;SDS011;67019;51.034;3.728;2023-04-30T12:35:41;5.78;;;4.22;;
77828;SDS011;67019;51.034;3.728;2023-04-30T12:38:08;8.95;;;4.40;;
77828;SDS011;67019;51.034;3.728;2023-04-30T12:40:36;7.78;;;2.98;;
77828;SDS011;67019;51.034;3.728;2023-04-30T12:43:06;4.75;;;3.42;;
77828;SDS011;67019;51.034;3.728;2023-04-30T12:45:47;6.42;;;3.58;;
77828;SDS011;67019;51.034;3.728;2023-04-30T12:48:19;4.85;;;3.60;;
77828;SDS011;67019;51.034;3.728;2023-04-30T12:50:57;7.37;;;4.78;;
77828;SDS011;67019;51.034;3.728;2023-04-30T12:53:27;6.35;;;3.90;;
77828;SDS011;67019;51.034;3.728;2023-04-30T12:56:11;6.05;;;3.72;;
77828;SDS011;67019;51.034;3.728;2023-04-30T12:58:43;10.28;;;4.47;;
77828;SDS011;67019;51.034;3.728;2023-04-30T13:01:19;4.08;;;3.55;;
77828;SDS011;67019;51.034;3.728;2023-04-30T13:03:45;6.05;;;3.02;;
77828;SDS011;67019;51.034;3.728;2023-04-30T13:06:13;5.87;;;4.17;;
77828;SDS011;67019;51.034;3.728;2023-04-30T13:08:40;5.60;;;3.58;;
77828;SDS011;67019;51.034;3.728;2023-04-30T13:11:08;8.78;;;4.33;;
77828;SDS011;67019;51.034;3.728;2023-04-30T13:13:38;25.00;;;4.85;;
77828;SDS011;67019;51.034;3.728;2023-04-30T13:16:06;4.28;;;3.20;;
77828;SDS011;67019;51.034;3.728;2023-04-30T13:18:36;4.33;;;2.95;;
77828;SDS011;67019;51.034;3.728;2023-04-30T13:21:03;5.17;;;2.87;;
77828;SDS011;67019;51.034;3.728;2023-04-30T13:23:31;10.00;;;3.55;;
77828;SDS011;67019;51.034;3.728;2023-04-30T13:25:58;31.33;;;4.65;;
77828;SDS011;67019;51.034;3.728;2023-04-30T13:28:26;4.90;;;2.75;;
77828;SDS011;67019;51.034;3.728;2023-04-30T13:30:55;6.37;;;2.70;;
77828;SDS011;67019;51.034;3.728;2023-04-30T13:33:22;5.53;;;3.10;;
77828;SDS011;67019;51.034;3.728;2023-04-30T13:35:50;5.55;;;3.10;;
77828;SDS011;67019;51.034;3.728;2023-04-30T13:38:18;4.67;;;3.52;;
77828;SDS011;67019;51.034;3.728;2023-04-30T13:40:46;8.13;;;4.03;;
77828;SDS011;67019;51.034;3.728;2023-04-30T13:43:14;5.78;;;3.27;;
77828;SDS011;67019;51.034;3.728;2023-04-30T13:45:41;5.00;;;2.92;;
77828;SDS011;67019;51.034;3.728;2023-04-30T13:48:09;4.10;;;2.83;;
77828;SDS011;67019;51.034;3.728;2023-04-30T13:50:37;6.17;;;4.05;;
77828;SDS011;67019;51.034;3.728;2023-04-30T13:53:04;4.22;;;2.47;;
77828;SDS011;67019;51.034;3.728;2023-04-30T13:55:32;5.50;;;2.58;;
77828;SDS011;67019;51.034;3.728;2023-04-30T13:57:59;10.32;;;2.87;;
77828;SDS011;67019;51.034;3.728;2023-04-30T14:00:28;4.45;;;2.42;;
77828;SDS011;67019;51.034;3.728;2023-04-30T14:02:56;4.37;;;2.20;;
77828;SDS011;67019;51.034;3.728;2023-04-30T14:05:23;4.10;;;2.72;;
77828;SDS011;67019;51.034;3.728;2023-04-30T14:07:51;4.70;;;2.98;;
77828;SDS011;67019;51.034;3.728;2023-04-30T14:10:19;2.70;;;2.30;;
77828;SDS011;67019;51.034;3.728;2023-04-30T14:12:47;4.37;;;2.77;;
77828;SDS011;67019;51.034;3.728;2023-04-30T14:15:14;5.40;;;2.50;;
77828;SDS011;67019;51.034;3.728;2023-04-30T14:17:42;4.30;;;2.65;;
77828;SDS011;67019;51.034;3.728;2023-04-30T14:20:10;5.15;;;2.55;;
77828;SDS011;67019;51.034;3.728;2023-04-30T14:22:38;7.90;;;3.10;;
77828;SDS011;67019;51.034;3.728;2023-04-30T14:25:06;5.70;;;2.30;;
77828;SDS011;67019;51.034;3.728;2023-04-30T14:27:38;3.50;;;2.50;;
77828;SDS011;67019;51.034;3.728;2023-04-30T14:30:06;5.78;;;3.00;;
77828;SDS011;67019;51.034;3.728;2023-04-30T14:32:35;6.10;;;2.75;;
77828;SDS011;67019;51.034;3.728;2023-04-30T14:35:02;2.85;;;2.37;;
77828;SDS011;67019;51.034;3.728;2023-04-30T14:37:30;2.27;;;1.92;;
77828;SDS011;67019;51.034;3.728;2023-04-30T14:39:58;3.75;;;2.10;;
77828;SDS011;67019;51.034;3.728;2023-04-30T14:42:26;5.10;;;2.67;;
77828;SDS011;67019;51.034;3.728;2023-04-30T14:44:54;2.90;;;2.10;;
77828;SDS011;67019;51.034;3.728;2023-04-30T14:47:21;3.40;;;1.77;;
77828;SDS011;67019;51.034;3.728;2023-04-30T14:49:50;4.25;;;1.65;;
77828;SDS011;67019;51.034;3.728;2023-04-30T14:52:18;2.50;;;2.20;;
77828;SDS011;67019;51.034;3.728;2023-04-30T14:54:46;8.18;;;2.70;;
77828;SDS011;67019;51.034;3.728;2023-04-30T14:57:13;3.08;;;1.98;;
77828;SDS011;67019;51.034;3.728;2023-04-30T14:59:43;2.92;;;2.30;;
77828;SDS011;67019;51.034;3.728;2023-04-30T15:02:11;4.00;;;2.17;;